createdAt,value
2022-08-02T00:00:09.296Z,16.36
2022-08-02T00:02:35.819Z,16.23
2022-08-02T00:05:02.465Z,16.17
2022-08-02T00:07:28.993Z,16.13
2022-08-02T00:09:55.543Z,16.05
2022-08-02T00:12:22.786Z,16.00
2022-08-02T00:14:49.393Z,15.99
2022-08-02T00:17:15.960Z,15.97
2022-08-02T00:19:42.507Z,15.90
2022-08-02T00:22:09.442Z,15.87
2022-08-02T00:24:36.053Z,15.87
2022-08-02T00:27:09.218Z,15.89
2022-08-02T00:29:44.434Z,15.91
2022-08-02T00:32:19.460Z,15.93
2022-08-02T00:34:46.008Z,15.85
2022-08-02T00:37:12.529Z,15.78
2022-08-02T00:39:39.115Z,15.82
2022-08-02T00:42:05.787Z,15.80
2022-08-02T00:44:32.338Z,15.78
2022-08-02T00:46:58.896Z,15.73
2022-08-02T00:49:25.581Z,15.64
2022-08-02T00:51:52.201Z,15.65
2022-08-02T00:54:19.952Z,15.67
2022-08-02T00:56:50.153Z,15.66
2022-08-02T00:59:18.905Z,15.65
2022-08-02T01:01:57.479Z,15.66
2022-08-02T01:04:30.132Z,15.62
2022-08-02T01:06:59.818Z,15.62
2022-08-02T01:09:26.761Z,15.59
2022-08-02T01:11:53.650Z,15.55
2022-08-02T01:14:21.096Z,15.57
2022-08-02T01:16:59.848Z,15.53
2022-08-02T01:19:51.654Z,15.55
2022-08-02T01:23:00.675Z,15.48
2022-08-02T01:25:53.025Z,15.46
2022-08-02T01:28:36.090Z,15.46
2022-08-02T01:31:12.492Z,15.41
2022-08-02T01:33:51.622Z,15.40
2022-08-02T01:36:20.141Z,15.40
2022-08-02T01:38:50.314Z,15.33
2022-08-02T01:41:26.208Z,15.35
2022-08-02T01:43:58.132Z,15.32
2022-08-02T01:46:26.709Z,15.31
2022-08-02T01:48:56.240Z,15.31
2022-08-02T01:51:44.749Z,15.27
2022-08-02T01:54:14.369Z,15.25
2022-08-02T01:56:42.926Z,15.26
2022-08-02T01:59:14.008Z,15.21
2022-08-02T02:01:42.991Z,15.19
2022-08-02T02:04:10.516Z,15.12
2022-08-02T02:06:37.927Z,15.06
2022-08-02T02:09:05.529Z,15.02
2022-08-02T02:12:09.815Z,15.04
2022-08-02T02:14:21.718Z,15.02
2022-08-02T02:16:49.511Z,15.01
2022-08-02T02:19:21.365Z,14.96
2022-08-02T02:21:49.450Z,14.95
2022-08-02T02:24:15.992Z,14.91
2022-08-02T02:26:50.695Z,14.84
2022-08-02T02:29:22.055Z,14.82
2022-08-02T02:31:52.662Z,14.83
2022-08-02T02:34:31.966Z,14.89
2022-08-02T02:37:02.615Z,14.90
2022-08-02T02:39:31.456Z,14.86
2022-08-02T02:43:13.108Z,14.82
2022-08-02T02:45:41.575Z,14.78
2022-08-02T02:48:09.485Z,14.77
2022-08-02T02:50:37.152Z,14.77
2022-08-02T02:53:04.703Z,14.77
2022-08-02T02:55:31.853Z,14.76
2022-08-02T02:57:58.797Z,14.69
2022-08-02T03:00:44.319Z,14.68
2022-08-02T03:03:12.965Z,14.63
2022-08-02T03:05:39.555Z,14.61
2022-08-02T03:08:06.141Z,14.60
2022-08-02T03:10:33.475Z,14.61
2022-08-02T03:13:00.184Z,14.57
2022-08-02T03:15:30.485Z,14.56
2022-08-02T03:17:57.105Z,14.55
2022-08-02T03:20:23.673Z,14.59
2022-08-02T03:22:50.216Z,14.60
2022-08-02T03:25:17.638Z,14.61
2022-08-02T03:27:44.172Z,14.60
2022-08-02T03:30:12.361Z,14.59
2022-08-02T03:32:41.121Z,14.60
2022-08-02T03:35:10.361Z,14.54
2022-08-02T03:37:37.999Z,14.46
2022-08-02T03:40:09.444Z,14.44
2022-08-02T03:42:36.111Z,14.45
2022-08-02T03:45:08.440Z,14.42
2022-08-02T03:47:37.464Z,14.38
2022-08-02T03:50:04.648Z,14.37
2022-08-02T03:52:33.416Z,14.38
2022-08-02T03:55:00.048Z,14.39
2022-08-02T03:57:26.808Z,14.43
2022-08-02T03:59:53.304Z,14.47
2022-08-02T04:02:19.787Z,14.50
2022-08-02T04:04:46.260Z,14.56
2022-08-02T04:07:12.823Z,14.57
2022-08-02T04:09:39.379Z,14.54
2022-08-02T04:12:06.022Z,14.52
2022-08-02T04:14:36.086Z,14.54
2022-08-02T04:17:08.225Z,14.52
2022-08-02T04:19:42.371Z,14.59
2022-08-02T04:22:16.230Z,14.63
2022-08-02T04:24:51.857Z,14.69
2022-08-02T04:28:15.051Z,14.71
2022-08-02T04:30:08.283Z,14.77
2022-08-02T04:32:35.537Z,14.77
2022-08-02T04:35:32.403Z,14.80
2022-08-02T04:38:08.104Z,14.84
2022-08-02T04:40:36.252Z,14.82
2022-08-02T04:43:02.754Z,14.84
2022-08-02T04:45:30.773Z,14.87
2022-08-02T04:48:05.958Z,14.91
2022-08-02T04:50:33.231Z,14.92
2022-08-02T04:52:59.719Z,14.94
2022-08-02T04:55:28.936Z,14.93
2022-08-02T04:57:57.499Z,14.96
2022-08-02T05:00:25.736Z,15.02
2022-08-02T05:02:52.627Z,15.12
2022-08-02T05:05:19.349Z,15.14
2022-08-02T05:07:45.999Z,15.21
2022-08-02T05:10:12.557Z,15.25
2022-08-02T05:12:39.536Z,15.25
2022-08-02T05:15:06.805Z,15.30
2022-08-02T05:17:35.777Z,15.34
2022-08-02T05:20:02.393Z,15.39
2022-08-02T05:22:28.854Z,15.40
2022-08-02T05:24:55.332Z,15.45
2022-08-02T05:27:22.215Z,15.46
2022-08-02T05:29:57.150Z,15.49
2022-08-02T05:32:25.099Z,15.56
2022-08-02T05:34:52.898Z,15.66
2022-08-02T05:37:19.532Z,15.80
2022-08-02T05:39:55.414Z,15.88
2022-08-02T05:42:22.702Z,15.92
2022-08-02T05:44:49.202Z,15.94
2022-08-02T05:47:15.655Z,16.01
2022-08-02T05:49:43.206Z,16.05
2022-08-02T05:52:18.569Z,16.13
2022-08-02T05:54:44.996Z,16.15
2022-08-02T05:57:20.279Z,16.24
2022-08-02T06:00:00.284Z,16.33
2022-08-02T06:02:50.023Z,16.41
2022-08-02T06:05:20.425Z,16.46
2022-08-02T06:07:48.843Z,16.59
2022-08-02T06:10:18.731Z,16.75
2022-08-02T06:12:57.915Z,16.83
2022-08-02T06:15:24.461Z,16.85
2022-08-02T06:17:52.702Z,16.88
2022-08-02T06:20:20.939Z,16.94
2022-08-02T06:22:48.342Z,17.03
2022-08-02T06:25:49.738Z,17.08
2022-08-02T06:28:02.974Z,17.13
2022-08-02T06:30:31.214Z,17.21
2022-08-02T06:33:00.153Z,17.30
2022-08-02T06:35:45.333Z,17.39
2022-08-02T06:38:19.727Z,17.48
2022-08-02T06:40:55.540Z,17.51
2022-08-02T06:43:34.701Z,17.59
2022-08-02T06:46:57.058Z,17.72
2022-08-02T06:48:50.047Z,17.77
2022-08-02T06:51:16.680Z,17.84
2022-08-02T06:53:43.729Z,17.92
2022-08-02T06:56:10.478Z,18.00
2022-08-02T06:58:37.830Z,18.11
2022-08-02T07:01:07.277Z,18.14
2022-08-02T07:03:34.768Z,18.20
2022-08-02T07:06:01.538Z,18.27
2022-08-02T07:08:32.371Z,18.30
2022-08-02T07:11:02.716Z,18.31
2022-08-02T07:13:29.871Z,18.31
2022-08-02T07:15:56.901Z,18.34
2022-08-02T07:18:24.552Z,18.32
2022-08-02T07:20:51.820Z,18.35
2022-08-02T07:23:18.851Z,18.39
2022-08-02T07:26:02.230Z,18.41
2022-08-02T07:28:30.078Z,18.50
2022-08-02T07:30:56.591Z,18.56
2022-08-02T07:33:37.481Z,18.62
2022-08-02T07:36:09.647Z,18.71
2022-08-02T07:38:43.291Z,18.80
2022-08-02T07:41:12.010Z,18.85
2022-08-02T07:43:38.506Z,18.95
2022-08-02T07:46:04.992Z,19.13
2022-08-02T07:48:31.527Z,19.23
2022-08-02T07:50:58.061Z,19.34
2022-08-02T07:53:49.751Z,19.43
2022-08-02T07:56:11.475Z,19.56
2022-08-02T07:58:38.022Z,19.63
2022-08-02T08:01:04.593Z,19.70
2022-08-02T08:03:31.108Z,19.81
2022-08-02T08:05:57.885Z,20.00
2022-08-02T08:08:24.364Z,20.04
2022-08-02T08:10:50.884Z,20.07
2022-08-02T08:13:17.488Z,20.06
2022-08-02T08:15:50.105Z,20.11
2022-08-02T08:18:20.165Z,20.19
2022-08-02T08:20:46.636Z,20.31
2022-08-02T08:23:13.152Z,20.37
2022-08-02T08:25:41.403Z,20.50
2022-08-02T08:28:08.962Z,20.61
2022-08-02T08:30:35.625Z,20.72
2022-08-02T08:33:02.909Z,20.90
2022-08-02T08:35:29.481Z,21.01
2022-08-02T08:37:55.952Z,20.91
2022-08-02T08:40:25.183Z,20.81
2022-08-02T08:42:52.001Z,20.79
2022-08-02T08:45:18.678Z,20.76
2022-08-02T08:47:51.151Z,20.74
2022-08-02T08:50:24.948Z,20.71
2022-08-02T08:53:03.621Z,20.76
2022-08-02T08:55:31.096Z,20.74
2022-08-02T08:57:59.578Z,20.70
2022-08-02T09:00:26.370Z,20.71
2022-08-02T09:02:53.236Z,20.71
2022-08-02T09:05:19.855Z,20.73
2022-08-02T09:07:48.742Z,20.76
2022-08-02T09:10:41.111Z,20.86
2022-08-02T09:13:32.374Z,20.97
2022-08-02T09:16:12.553Z,21.02
2022-08-02T09:18:44.595Z,21.18
2022-08-02T09:21:12.347Z,21.22
2022-08-02T09:23:41.140Z,21.23
2022-08-02T09:26:21.215Z,21.31
2022-08-02T09:28:53.038Z,21.37
2022-08-02T09:31:21.455Z,21.43
2022-08-02T09:33:54.313Z,21.43
2022-08-02T09:36:21.665Z,21.58
2022-08-02T09:39:02.033Z,21.71
2022-08-02T09:41:33.998Z,21.79
2022-08-02T09:44:04.456Z,21.81
2022-08-02T09:46:38.567Z,21.92
2022-08-02T09:49:11.432Z,22.09
2022-08-02T09:51:45.153Z,22.11
2022-08-02T09:54:17.172Z,21.95
2022-08-02T09:56:45.079Z,21.85
2022-08-02T09:59:13.625Z,21.92
2022-08-02T10:01:48.431Z,21.94
2022-08-02T10:04:24.638Z,22.09
2022-08-02T10:06:53.182Z,22.20
2022-08-02T10:09:21.650Z,22.19
2022-08-02T10:11:48.900Z,22.15
2022-08-02T10:14:18.297Z,22.30
2022-08-02T10:16:44.822Z,22.40
2022-08-02T10:19:11.407Z,22.39
2022-08-02T10:21:58.390Z,22.57
2022-08-02T10:24:28.615Z,22.67
2022-08-02T10:26:55.702Z,22.72
2022-08-02T10:29:53.945Z,22.91
2022-08-02T10:32:33.025Z,23.19
2022-08-02T10:35:25.939Z,23.60
2022-08-02T10:38:07.907Z,23.89
2022-08-02T10:40:51.666Z,23.90
2022-08-02T10:43:36.582Z,24.01
2022-08-02T10:46:22.571Z,24.05
2022-08-02T10:49:36.171Z,24.11
2022-08-02T10:52:00.367Z,24.01
2022-08-02T10:54:36.288Z,23.92
2022-08-02T10:57:03.716Z,24.21
2022-08-02T10:59:36.328Z,24.08
2022-08-02T11:02:05.861Z,23.97
2022-08-02T11:04:41.080Z,23.96
2022-08-02T11:07:11.830Z,24.33
2022-08-02T11:09:38.699Z,24.25
2022-08-02T11:12:06.783Z,24.21
2022-08-02T11:14:38.729Z,24.28
2022-08-02T11:17:12.857Z,24.21
2022-08-02T11:20:12.842Z,24.30
2022-08-02T11:22:40.332Z,24.27
2022-08-02T11:25:22.261Z,24.24
2022-08-02T11:28:10.391Z,24.32
2022-08-02T11:30:43.138Z,24.27
2022-08-02T11:33:09.959Z,24.52
2022-08-02T11:35:39.498Z,24.97
2022-08-02T11:38:14.461Z,25.33
2022-08-02T11:40:43.565Z,25.77
2022-08-02T11:43:37.007Z,25.73
2022-08-02T11:46:04.757Z,26.11
2022-08-02T11:48:37.159Z,26.51
2022-08-02T11:51:15.058Z,26.56
2022-08-02T11:53:44.383Z,25.93
2022-08-02T11:56:11.092Z,25.64
2022-08-02T11:58:38.487Z,25.50
2022-08-02T12:01:08.611Z,25.73
2022-08-02T12:03:37.708Z,25.56
2022-08-02T12:06:10.971Z,25.85
2022-08-02T12:08:54.684Z,26.44
2022-08-02T12:11:21.606Z,26.75
2022-08-02T12:13:57.201Z,27.12
2022-08-02T12:16:44.076Z,27.43
2022-08-02T12:19:19.494Z,27.79
2022-08-02T12:21:46.868Z,27.17
2022-08-02T12:24:13.519Z,26.66
2022-08-02T12:26:45.286Z,26.37
2022-08-02T12:29:12.102Z,26.32
2022-08-02T12:31:56.084Z,26.77
2022-08-02T12:34:31.893Z,27.24
2022-08-02T12:37:07.442Z,26.88
2022-08-02T12:39:46.080Z,26.57
2022-08-02T12:42:15.459Z,26.34
2022-08-02T12:44:58.681Z,26.87
2022-08-02T12:47:31.333Z,27.45
2022-08-02T12:50:19.078Z,27.60
2022-08-02T12:52:46.938Z,27.80
2022-08-02T12:55:18.498Z,27.95
2022-08-02T12:58:03.688Z,27.84
2022-08-02T13:00:33.188Z,27.35
2022-08-02T13:03:00.221Z,26.99
2022-08-02T13:05:29.767Z,26.79
2022-08-02T13:08:16.830Z,26.81
2022-08-02T13:10:44.223Z,27.13
2022-08-02T13:13:10.872Z,27.57
2022-08-02T13:15:48.814Z,28.21
2022-08-02T13:18:18.292Z,29.83
2022-08-02T13:20:45.776Z,32.34
2022-08-02T13:23:21.307Z,32.89
2022-08-02T13:25:52.531Z,32.13
2022-08-02T13:28:20.253Z,32.15
2022-08-02T13:30:47.606Z,31.43
2022-08-02T13:33:14.804Z,30.71
2022-08-02T13:35:42.251Z,30.59
2022-08-02T13:38:08.822Z,32.89
2022-08-02T13:41:03.960Z,31.43
2022-08-02T13:43:52.809Z,31.19
2022-08-02T13:46:18.116Z,32.29
2022-08-02T13:48:56.074Z,31.37
2022-08-02T13:51:22.693Z,30.22
2022-08-02T13:53:49.212Z,29.89
2022-08-02T13:56:15.801Z,30.53
2022-08-02T13:58:42.797Z,30.52
2022-08-02T14:01:09.369Z,30.30
2022-08-02T14:04:05.944Z,30.20
2022-08-02T14:06:22.506Z,29.74
2022-08-02T14:08:49.419Z,29.08
2022-08-02T14:11:15.939Z,28.68
2022-08-02T14:13:42.424Z,28.25
2022-08-02T14:16:08.972Z,28.56
2022-08-02T14:18:35.592Z,29.07
2022-08-02T14:21:02.152Z,29.35
2022-08-02T14:23:49.258Z,29.55
2022-08-02T14:26:26.861Z,29.80
2022-08-02T14:28:54.081Z,29.78
2022-08-02T14:31:20.606Z,29.99
2022-08-02T14:33:47.067Z,30.04
2022-08-02T14:36:13.551Z,30.39
2022-08-02T14:38:40.268Z,30.57
2022-08-02T14:41:06.778Z,29.84
2022-08-02T14:43:51.754Z,30.29
2022-08-02T14:46:18.245Z,30.81
2022-08-02T14:48:44.712Z,31.00
2022-08-02T14:51:13.556Z,31.34
2022-08-02T14:53:49.707Z,30.99
2022-08-02T14:56:30.153Z,31.46
2022-08-02T14:58:56.785Z,30.41
2022-08-02T15:01:26.044Z,29.65
2022-08-02T15:03:53.514Z,29.27
2022-08-02T15:06:20.302Z,28.93
2022-08-02T15:08:46.777Z,28.72
2022-08-02T15:11:13.341Z,28.58
2022-08-02T15:13:42.296Z,28.47
2022-08-02T15:16:09.938Z,28.36
2022-08-02T15:18:36.598Z,28.32
2022-08-02T15:21:11.727Z,28.25
2022-08-02T15:23:50.130Z,28.18
2022-08-02T15:26:16.611Z,29.50
2022-08-02T15:28:43.111Z,30.18
2022-08-02T15:31:09.830Z,29.45
2022-08-02T15:33:36.313Z,28.91
2022-08-02T15:36:02.925Z,28.59
2022-08-02T15:38:29.519Z,28.60
2022-08-02T15:40:55.995Z,28.59
2022-08-02T15:43:22.564Z,28.32
2022-08-02T15:45:49.055Z,28.27
2022-08-02T15:48:16.328Z,28.24
2022-08-02T15:50:43.071Z,28.28
2022-08-02T15:53:09.666Z,28.18
2022-08-02T15:55:40.008Z,28.10
2022-08-02T15:58:23.845Z,28.35
2022-08-02T16:00:50.454Z,28.42
2022-08-02T16:03:17.008Z,28.36
2022-08-02T16:05:43.623Z,28.15
2022-08-02T16:08:10.219Z,28.08
2022-08-02T16:10:36.695Z,27.98
2022-08-02T16:13:22.139Z,28.00
2022-08-02T16:15:48.650Z,27.91
2022-08-02T16:18:15.124Z,27.88
2022-08-02T16:20:41.661Z,27.89
2022-08-02T16:23:08.135Z,27.84
2022-08-02T16:25:38.764Z,28.04
2022-08-02T16:28:08.363Z,28.75
2022-08-02T16:30:35.604Z,30.35
2022-08-02T16:33:02.358Z,31.37
2022-08-02T16:35:29.165Z,32.06
2022-08-02T16:37:55.714Z,32.56
2022-08-02T16:40:22.361Z,32.77
2022-08-02T16:42:50.584Z,32.93
2022-08-02T16:45:21.040Z,33.40
2022-08-02T16:47:56.238Z,33.90
2022-08-02T16:50:28.749Z,33.91
2022-08-02T16:52:58.076Z,33.85
2022-08-02T16:55:25.286Z,34.09
2022-08-02T16:57:51.880Z,34.19
2022-08-02T17:00:23.407Z,33.75
2022-08-02T17:02:49.911Z,32.66
2022-08-02T17:05:16.431Z,33.14
2022-08-02T17:08:06.089Z,33.28
2022-08-02T17:10:31.085Z,32.93
2022-08-02T17:12:57.755Z,32.30
2022-08-02T17:16:01.589Z,31.65
2022-08-02T17:18:11.372Z,31.38
2022-08-02T17:20:37.845Z,31.07
2022-08-02T17:23:06.145Z,30.87
2022-08-02T17:25:32.696Z,30.51
2022-08-02T17:27:59.271Z,30.25
2022-08-02T17:30:26.956Z,30.07
2022-08-02T17:32:54.124Z,29.99
2022-08-02T17:35:24.300Z,29.95
2022-08-02T17:37:54.704Z,29.85
2022-08-02T17:40:27.096Z,29.58
2022-08-02T17:42:53.558Z,29.42
2022-08-02T17:45:25.177Z,29.34
2022-08-02T17:48:04.567Z,29.18
2022-08-02T17:50:33.244Z,29.23
2022-08-02T17:53:00.208Z,29.13
2022-08-02T17:55:27.208Z,29.03
2022-08-02T17:57:59.177Z,28.98
2022-08-02T18:00:32.096Z,28.72
2022-08-02T18:03:01.995Z,28.67
2022-08-02T18:08:21.300Z,28.38
2022-08-02T18:10:49.166Z,28.27
2022-08-02T18:13:15.642Z,28.21
2022-08-02T18:15:42.128Z,28.21
2022-08-02T18:18:12.899Z,28.11
2022-08-02T18:20:40.954Z,27.86
2022-08-02T18:23:13.580Z,27.77
2022-08-02T18:28:27.856Z,27.58
2022-08-02T18:30:54.339Z,27.44
2022-08-02T18:33:57.002Z,27.32
2022-08-02T18:36:09.079Z,27.18
2022-08-02T18:38:36.507Z,27.11
2022-08-02T18:41:05.693Z,27.03
2022-08-02T18:43:43.375Z,26.95
2022-08-02T18:46:15.371Z,26.88
2022-08-02T18:48:46.328Z,26.80
2022-08-02T18:51:14.346Z,26.69
2022-08-02T18:53:42.286Z,26.57
2022-08-02T18:56:19.829Z,26.43
2022-08-02T18:58:55.960Z,26.31
2022-08-02T19:01:32.316Z,26.15
2022-08-02T19:04:02.634Z,26.03
2022-08-02T19:06:29.664Z,25.92
2022-08-02T19:09:05.085Z,25.86
2022-08-02T19:11:35.302Z,25.73
2022-08-02T19:14:02.273Z,25.64
2022-08-02T19:16:36.668Z,25.64
2022-08-02T19:19:05.570Z,25.56
2022-08-02T19:22:18.677Z,25.33
2022-08-02T19:24:19.064Z,25.14
2022-08-02T19:26:51.708Z,25.06
2022-08-02T19:29:42.020Z,24.99
2022-08-02T19:32:08.661Z,24.95
2022-08-02T19:34:53.210Z,24.73
2022-08-02T19:37:19.710Z,24.60
2022-08-02T19:39:46.256Z,24.45
2022-08-02T19:42:14.644Z,24.35
2022-08-02T19:44:45.008Z,24.25
2022-08-02T19:47:12.867Z,24.06
2022-08-02T19:49:48.850Z,24.02
2022-08-02T19:52:21.247Z,23.90
2022-08-02T19:54:55.847Z,23.76
2022-08-02T19:57:24.965Z,23.64
2022-08-02T19:59:52.712Z,23.46
2022-08-02T20:02:21.059Z,23.40
2022-08-02T20:04:49.921Z,23.30
2022-08-02T20:07:49.766Z,23.27
2022-08-02T20:10:03.782Z,23.15
2022-08-02T20:12:35.250Z,23.14
2022-08-02T20:15:07.842Z,23.09
2022-08-02T20:17:47.238Z,22.99
2022-08-02T20:20:14.949Z,22.87
2022-08-02T20:23:00.186Z,22.74
2022-08-02T20:25:29.119Z,22.61
2022-08-02T20:27:55.722Z,22.56
2022-08-02T20:30:22.256Z,22.46
2022-08-02T20:32:58.903Z,22.42
2022-08-02T20:35:29.218Z,22.28
2022-08-02T20:38:02.024Z,22.18
2022-08-02T20:40:31.379Z,22.09
2022-08-02T20:42:57.909Z,21.98
2022-08-02T20:45:25.227Z,21.98
2022-08-02T20:47:54.636Z,21.85
2022-08-02T20:50:41.144Z,21.74
2022-08-02T20:53:24.058Z,21.66
2022-08-02T20:55:54.568Z,21.55
2022-08-02T20:58:26.523Z,21.53
2022-08-02T21:00:56.654Z,21.48
2022-08-02T21:03:23.392Z,21.46
2022-08-02T21:05:54.640Z,21.40
2022-08-02T21:08:23.353Z,21.29
2022-08-02T21:10:52.289Z,21.21
2022-08-02T21:13:24.342Z,21.17
2022-08-02T21:15:56.959Z,21.12
2022-08-02T21:18:35.044Z,21.10
2022-08-02T21:21:08.710Z,21.05
2022-08-02T21:23:36.610Z,21.02
2022-08-02T21:26:04.233Z,20.95
2022-08-02T21:28:35.084Z,20.86
2022-08-02T21:31:12.367Z,20.86
2022-08-02T21:33:56.776Z,20.76
2022-08-02T21:36:30.663Z,20.67
2022-08-02T21:39:05.081Z,20.55
2022-08-02T21:41:39.237Z,20.52
2022-08-02T21:44:12.826Z,20.48
2022-08-02T21:46:40.753Z,20.51
2022-08-02T21:49:11.299Z,20.48
2022-08-02T21:51:39.078Z,20.45
2022-08-02T21:54:17.479Z,20.48
2022-08-02T21:56:52.279Z,20.33
2022-08-02T21:59:26.218Z,20.24
2022-08-02T22:02:10.035Z,20.24
2022-08-02T22:04:36.630Z,20.21
2022-08-02T22:07:03.292Z,20.14
2022-08-02T22:12:19.200Z,20.05
2022-08-02T22:14:53.854Z,19.91
2022-08-02T22:17:49.776Z,19.83
2022-08-02T22:20:19.851Z,19.78
2022-08-02T22:22:48.069Z,19.74
2022-08-02T22:25:26.861Z,19.75
2022-08-02T22:28:38.085Z,19.74
2022-08-02T22:30:52.664Z,19.69
2022-08-02T22:33:38.300Z,19.66
2022-08-02T22:36:09.208Z,19.62
2022-08-02T22:38:38.412Z,19.59
2022-08-02T22:41:04.883Z,19.53
2022-08-02T22:43:35.716Z,19.52
2022-08-02T22:46:04.740Z,19.48
2022-08-02T22:48:35.885Z,19.43
2022-08-02T22:51:06.741Z,19.36
2022-08-02T22:53:35.507Z,19.28
2022-08-02T22:56:03.598Z,19.23
2022-08-02T22:58:31.660Z,19.21
2022-08-02T22:58:44.223Z,27.72
2022-08-02T22:58:59.210Z,28.57
2022-08-02T23:00:58.526Z,19.22
2022-08-02T23:03:25.059Z,19.16
2022-08-02T23:05:51.928Z,19.14
2022-08-02T23:08:18.458Z,19.06
2022-08-02T23:10:45.094Z,18.98
2022-08-02T23:13:11.872Z,18.98
2022-08-02T23:15:58.136Z,18.96
2022-08-02T23:18:43.099Z,18.92
2022-08-02T23:21:09.678Z,18.88
2022-08-02T23:23:36.162Z,18.81
2022-08-02T23:26:03.012Z,18.80
2022-08-02T23:28:29.650Z,18.76
2022-08-02T23:30:56.195Z,18.73
2022-08-02T23:33:22.792Z,18.70
2022-08-02T23:35:49.293Z,18.60
2022-08-02T23:38:15.768Z,18.57
2022-08-02T23:40:42.249Z,18.52
2022-08-02T23:43:14.337Z,18.49
2022-08-02T23:45:43.617Z,18.44
2022-08-02T23:48:10.143Z,18.39
2022-08-02T23:50:36.710Z,18.39
2022-08-02T23:53:03.239Z,18.42
2022-08-02T23:55:29.712Z,18.39
2022-08-02T23:57:56.208Z,18.41
